createdAt,value
2023-01-07T00:00:15.571Z,100520.63
2023-01-07T00:01:13.484Z,100513.66
2023-01-07T00:01:53.542Z,100525.94
2023-01-07T00:02:33.491Z,100490.31
2023-01-07T00:03:21.623Z,100509.56
2023-01-07T00:04:17.475Z,100517.31
2023-01-07T00:05:11.463Z,100512.88
2023-01-07T00:06:05.493Z,100492.25
2023-01-07T00:06:59.506Z,100511.28
2023-01-07T00:07:53.471Z,100479.66
2023-01-07T00:08:42.503Z,100496.00
2023-01-07T00:09:20.604Z,100502.25
2023-01-07T00:10:07.469Z,100506.09
2023-01-07T00:10:42.579Z,100507.63
2023-01-07T00:11:35.484Z,100509.88
2023-01-07T00:12:09.537Z,100493.09
2023-01-07T00:12:56.459Z,100501.50
2023-01-07T00:13:30.580Z,100493.88
2023-01-07T00:14:13.479Z,100494.94
2023-01-07T00:14:54.769Z,100500.84
2023-01-07T00:15:35.451Z,100486.53
2023-01-07T00:16:19.618Z,100496.88
2023-01-07T00:16:59.450Z,100502.56
2023-01-07T00:17:39.562Z,100506.56
2023-01-07T00:18:20.459Z,100492.78
2023-01-07T00:19:02.644Z,100504.50
2023-01-07T00:19:43.499Z,100497.53
2023-01-07T00:20:23.549Z,100502.91
2023-01-07T00:21:08.447Z,100503.97
2023-01-07T00:21:49.563Z,100485.69
2023-01-07T00:22:29.413Z,100499.25
2023-01-07T00:23:09.538Z,100514.72
2023-01-07T00:23:51.450Z,100516.22
2023-01-07T00:24:31.565Z,100508.78
2023-01-07T00:25:12.501Z,100510.13
2023-01-07T00:25:52.578Z,100510.19
2023-01-07T00:26:40.468Z,100516.88
2023-01-07T00:27:20.536Z,100496.03
2023-01-07T00:28:00.483Z,100494.72
2023-01-07T00:28:43.581Z,100509.16
2023-01-07T00:29:25.463Z,100505.91
2023-01-07T00:30:20.493Z,100508.50
2023-01-07T00:31:16.488Z,100505.69
2023-01-07T00:32:10.489Z,100510.97
2023-01-07T00:33:11.444Z,100510.84
2023-01-07T00:34:06.447Z,100521.06
2023-01-07T00:35:00.440Z,100518.25
2023-01-07T00:35:43.473Z,100521.06
2023-01-07T00:36:24.550Z,100516.88
2023-01-07T00:37:24.462Z,100523.56
2023-01-07T00:38:04.506Z,100525.28
2023-01-07T00:38:45.459Z,100516.88
2023-01-07T00:39:27.560Z,100526.03
2023-01-07T00:40:08.434Z,100531.09
2023-01-07T00:40:55.443Z,100523.03
2023-01-07T00:42:09.451Z,100510.00
2023-01-07T00:43:08.449Z,100529.38
2023-01-07T00:44:02.543Z,100515.59
2023-01-07T00:44:56.475Z,100526.25
2023-01-07T00:45:51.428Z,100524.00
2023-01-07T00:46:31.567Z,100524.19
2023-01-07T00:47:11.534Z,100524.63
2023-01-07T00:47:52.433Z,100529.47
2023-01-07T00:48:32.540Z,100520.53
2023-01-07T00:49:13.431Z,100536.47
2023-01-07T00:49:53.518Z,100530.66
2023-01-07T00:50:37.442Z,100505.91
2023-01-07T00:51:19.518Z,100537.09
2023-01-07T00:52:00.493Z,100538.19
2023-01-07T00:52:40.545Z,100536.13
2023-01-07T00:53:21.450Z,100530.31
2023-01-07T00:54:02.522Z,100537.88
2023-01-07T00:54:43.416Z,100540.13
2023-01-07T00:55:24.537Z,100539.59
2023-01-07T00:56:04.468Z,100539.03
2023-01-07T00:56:44.513Z,100536.47
2023-01-07T00:57:24.472Z,100537.63
2023-01-07T00:58:05.557Z,100537.44
2023-01-07T00:58:46.421Z,100540.13
2023-01-07T00:59:26.566Z,100536.78
2023-01-07T01:00:07.415Z,100538.63
2023-01-07T01:00:47.528Z,100542.03
2023-01-07T01:01:27.464Z,100540.44
2023-01-07T01:02:07.827Z,100544.66
2023-01-07T01:02:48.486Z,100535.06
2023-01-07T01:03:30.542Z,100525.59
2023-01-07T01:04:12.431Z,100535.69
2023-01-07T01:04:54.703Z,100537.56
2023-01-07T01:05:35.421Z,100513.22
2023-01-07T01:06:21.662Z,100533.00
2023-01-07T01:07:01.400Z,100549.78
2023-01-07T01:07:42.487Z,100546.25
2023-01-07T01:08:24.435Z,100542.28
2023-01-07T01:09:04.530Z,100538.31
2023-01-07T01:09:44.415Z,100535.63
2023-01-07T01:10:27.967Z,100552.38
2023-01-07T01:11:13.419Z,100552.19
2023-01-07T01:11:54.580Z,100544.66
2023-01-07T01:12:35.402Z,100544.00
2023-01-07T01:13:19.491Z,100540.13
2023-01-07T01:13:59.409Z,100543.13
2023-01-07T01:14:39.477Z,100551.94
2023-01-07T01:15:22.444Z,100551.19
2023-01-07T01:16:02.616Z,100552.38
2023-01-07T01:16:43.461Z,100544.84
2023-01-07T01:17:23.501Z,100531.50
2023-01-07T01:18:03.410Z,100546.78
2023-01-07T01:18:44.700Z,100542.25
2023-01-07T01:19:24.429Z,100550.31
2023-01-07T01:20:04.664Z,100535.59
2023-01-07T01:20:45.419Z,100541.19
2023-01-07T01:21:25.564Z,100533.44
2023-01-07T01:22:05.409Z,100541.81
2023-01-07T01:22:46.516Z,100532.16
2023-01-07T01:23:27.391Z,100538.38
2023-01-07T01:24:07.518Z,100533.75
2023-01-07T01:24:47.461Z,100538.38
2023-01-07T01:25:27.432Z,100533.78
2023-01-07T01:26:21.500Z,100542.25
2023-01-07T01:27:01.441Z,100545.72
2023-01-07T01:27:42.417Z,100543.78
2023-01-07T01:28:22.461Z,100533.66
2023-01-07T01:29:02.405Z,100533.31
2023-01-07T01:29:42.475Z,100530.41
2023-01-07T01:30:23.394Z,100536.25
2023-01-07T01:31:03.546Z,100515.78
2023-01-07T01:31:44.562Z,100535.56
2023-01-07T01:32:24.488Z,100527.84
2023-01-07T01:33:04.393Z,100531.28
2023-01-07T01:33:44.589Z,100519.44
2023-01-07T01:34:25.405Z,100534.97
2023-01-07T01:35:05.477Z,100528.06
2023-01-07T01:35:48.400Z,100513.44
2023-01-07T01:36:29.489Z,100533.00
2023-01-07T01:37:10.422Z,100540.09
2023-01-07T01:37:50.491Z,100533.53
2023-01-07T01:38:30.372Z,100493.53
2023-01-07T01:39:11.445Z,100534.81
2023-01-07T01:39:52.359Z,100534.09
2023-01-07T01:40:36.429Z,100525.03
2023-01-07T01:41:16.405Z,100530.44
2023-01-07T01:41:56.452Z,100532.56
2023-01-07T01:42:38.462Z,100529.56
2023-01-07T01:43:55.508Z,100541.19
2023-01-07T01:44:59.377Z,100537.94
2023-01-07T01:45:39.448Z,100517.94
2023-01-07T01:46:48.444Z,100526.88
2023-01-07T01:47:39.445Z,100531.72
2023-01-07T01:48:27.366Z,100537.75
2023-01-07T01:49:12.444Z,100540.44
2023-01-07T01:50:18.397Z,100525.25
2023-01-07T01:50:53.431Z,100531.91
2023-01-07T01:51:45.366Z,100542.59
2023-01-07T01:52:40.414Z,100520.22
2023-01-07T01:53:40.377Z,100542.44
2023-01-07T01:54:34.383Z,100523.00
2023-01-07T01:55:34.393Z,100526.41
2023-01-07T01:56:34.370Z,100537.28
2023-01-07T01:57:31.369Z,100541.81
2023-01-07T01:58:17.374Z,100545.22
2023-01-07T01:59:08.421Z,100540.09
2023-01-07T01:59:51.354Z,100537.03
2023-01-07T02:00:31.548Z,100549.44
2023-01-07T02:01:12.537Z,100549.97
2023-01-07T02:01:52.741Z,100544.78
2023-01-07T02:02:59.367Z,100547.81
2023-01-07T02:03:43.393Z,100530.50
2023-01-07T02:04:21.427Z,100542.41
2023-01-07T02:05:09.339Z,100535.78
2023-01-07T02:05:46.436Z,100548.91
2023-01-07T02:06:38.330Z,100531.91
2023-01-07T02:07:20.499Z,100533.41
2023-01-07T02:08:07.358Z,100534.47
2023-01-07T02:08:41.426Z,100547.72
2023-01-07T02:09:21.364Z,100533.19
2023-01-07T02:10:26.903Z,100535.13
2023-01-07T02:11:39.353Z,100541.72
2023-01-07T02:12:51.472Z,100534.69
2023-01-07T02:14:02.379Z,100545.47
2023-01-07T02:15:17.406Z,100536.19
2023-01-07T02:16:12.447Z,100520.91
2023-01-07T02:17:37.357Z,100533.63
2023-01-07T02:18:48.402Z,100506.41
2023-01-07T02:20:27.393Z,100530.09
2023-01-07T02:21:29.447Z,100528.69
2023-01-07T02:23:08.355Z,100525.25
2023-01-07T02:24:15.665Z,100516.88
2023-01-07T02:25:24.326Z,100486.75
2023-01-07T02:26:26.382Z,100501.38
2023-01-07T02:27:21.200Z,100520.97
2023-01-07T02:28:41.526Z,100510.41
2023-01-07T02:29:50.358Z,100517.50
2023-01-07T02:30:24.499Z,100519.25
2023-01-07T02:31:33.357Z,100508.03
2023-01-07T02:32:35.487Z,100509.13
2023-01-07T02:33:35.318Z,100510.53
2023-01-07T02:35:00.413Z,100517.75
2023-01-07T02:36:01.334Z,100516.22
2023-01-07T02:37:12.360Z,100512.56
2023-01-07T02:38:06.732Z,100501.41
2023-01-07T02:39:31.324Z,100487.72
2023-01-07T02:40:37.125Z,100509.22
2023-01-07T02:41:37.341Z,100511.06
2023-01-07T02:42:24.381Z,100516.78
2023-01-07T02:43:44.394Z,100509.47
2023-01-07T02:44:56.488Z,100514.28
2023-01-07T02:45:54.482Z,100515.59
2023-01-07T02:46:52.313Z,100502.69
2023-01-07T02:48:07.337Z,100523.56
2023-01-07T02:48:41.481Z,100523.56
2023-01-07T02:49:31.317Z,100522.25
2023-01-07T02:50:08.083Z,100529.34
2023-01-07T02:50:55.310Z,100531.09
2023-01-07T02:51:38.225Z,100533.00
2023-01-07T02:52:37.367Z,100531.53
2023-01-07T02:53:22.376Z,100530.00
2023-01-07T02:54:03.408Z,100521.38
2023-01-07T02:54:43.327Z,100536.47
2023-01-07T02:55:29.481Z,100524.44
2023-01-07T02:56:52.310Z,100517.66
2023-01-07T02:58:01.395Z,100525.16
2023-01-07T02:59:23.343Z,100521.38
2023-01-07T03:00:42.399Z,100517.41
2023-01-07T03:02:08.307Z,100533.00
2023-01-07T03:03:21.959Z,100542.47
2023-01-07T03:04:34.301Z,100536.44
2023-01-07T03:05:33.406Z,100510.53
2023-01-07T03:06:37.304Z,100515.91
2023-01-07T03:07:46.599Z,100513.00
2023-01-07T03:09:10.328Z,100541.63
2023-01-07T03:10:18.305Z,100523.09
2023-01-07T03:11:15.275Z,100547.22
2023-01-07T03:12:44.292Z,100530.44
2023-01-07T03:13:55.316Z,100532.16
2023-01-07T03:15:32.304Z,100546.44
2023-01-07T03:16:35.250Z,100510.88
2023-01-07T03:17:35.496Z,100532.81
2023-01-07T03:18:39.290Z,100526.56
2023-01-07T03:19:48.323Z,100527.31
2023-01-07T03:20:43.306Z,100517.09
2023-01-07T03:21:38.266Z,100522.78
2023-01-07T03:22:35.263Z,100516.69
2023-01-07T03:23:32.311Z,100533.44
2023-01-07T03:24:28.266Z,100543.03
2023-01-07T03:25:23.308Z,100546.88
2023-01-07T03:26:09.308Z,100542.03
2023-01-07T03:26:56.365Z,100517.00
2023-01-07T03:27:40.266Z,100533.13
2023-01-07T03:28:24.415Z,100534.53
2023-01-07T03:29:08.297Z,100512.03
2023-01-07T03:29:48.447Z,100527.84
2023-01-07T03:30:29.274Z,100534.41
2023-01-07T03:31:18.358Z,100536.13
2023-01-07T03:32:30.272Z,100503.75
2023-01-07T03:33:59.307Z,100515.38
2023-01-07T03:34:54.269Z,100496.22
2023-01-07T03:35:48.278Z,100531.19
2023-01-07T03:36:47.276Z,100528.06
2023-01-07T03:37:25.384Z,100530.03
2023-01-07T03:38:13.455Z,100523.53
2023-01-07T03:38:48.348Z,100532.78
2023-01-07T03:39:38.267Z,100529.34
2023-01-07T03:40:13.333Z,100536.97
2023-01-07T03:41:00.247Z,100532.38
2023-01-07T03:41:59.297Z,100520.09
2023-01-07T03:42:55.267Z,100535.34
2023-01-07T03:43:49.256Z,100534.50
2023-01-07T03:44:43.290Z,100531.16
2023-01-07T03:45:39.278Z,100522.25
2023-01-07T03:46:33.264Z,100540.00
2023-01-07T03:47:20.273Z,100531.50
2023-01-07T03:47:57.329Z,100531.72
2023-01-07T03:48:44.262Z,100533.78
2023-01-07T03:49:18.372Z,100521.31
2023-01-07T03:50:05.235Z,100525.72
2023-01-07T03:50:39.320Z,100496.44
2023-01-07T03:51:26.272Z,100514.72
2023-01-07T03:52:00.331Z,100510.88
2023-01-07T03:52:40.283Z,100529.91
2023-01-07T03:53:20.415Z,100509.16
2023-01-07T03:54:00.258Z,100526.44
2023-01-07T03:54:40.312Z,100508.50
2023-01-07T03:55:21.266Z,100529.13
2023-01-07T03:56:01.310Z,100522.47
2023-01-07T03:56:41.216Z,100529.69
2023-01-07T03:57:21.373Z,100529.13
2023-01-07T03:58:03.336Z,100516.25
2023-01-07T03:58:44.396Z,100528.28
2023-01-07T03:59:24.253Z,100530.97
2023-01-07T04:00:04.328Z,100532.16
2023-01-07T04:00:44.287Z,100527.19
2023-01-07T04:01:24.394Z,100525.91
2023-01-07T04:02:04.373Z,100534.53
2023-01-07T04:02:45.390Z,100540.44
2023-01-07T04:03:26.248Z,100539.47
2023-01-07T04:04:06.400Z,100539.47
2023-01-07T04:04:46.519Z,100535.25
2023-01-07T04:05:26.282Z,100533.66
2023-01-07T04:06:06.245Z,100526.78
2023-01-07T04:06:46.344Z,100523.97
2023-01-07T04:07:27.222Z,100508.88
2023-01-07T04:08:07.283Z,100526.22
2023-01-07T04:08:47.231Z,100534.16
2023-01-07T04:09:27.485Z,100534.72
2023-01-07T04:10:08.256Z,100539.47
2023-01-07T04:10:48.479Z,100534.09
2023-01-07T04:11:28.238Z,100511.50
2023-01-07T04:12:08.321Z,100539.69
2023-01-07T04:12:49.257Z,100536.03
2023-01-07T04:13:29.288Z,100530.22
2023-01-07T04:14:10.247Z,100535.63
2023-01-07T04:14:50.347Z,100538.63
2023-01-07T04:15:30.248Z,100538.06
2023-01-07T04:16:10.421Z,100531.09
2023-01-07T04:16:51.368Z,100531.09
2023-01-07T04:17:32.329Z,100525.25
2023-01-07T04:18:12.223Z,100533.66
2023-01-07T04:18:52.299Z,100538.06
2023-01-07T04:19:32.224Z,100527.84
2023-01-07T04:20:13.317Z,100514.94
2023-01-07T04:20:56.216Z,100528.72
2023-01-07T04:21:36.296Z,100529.16
2023-01-07T04:22:17.198Z,100511.28
2023-01-07T04:22:57.304Z,100531.72
2023-01-07T04:23:37.211Z,100524.44
2023-01-07T04:24:17.349Z,100521.06
2023-01-07T04:24:57.253Z,100532.69
2023-01-07T04:25:38.287Z,100507.50
2023-01-07T04:26:18.227Z,100506.97
2023-01-07T04:26:59.313Z,100519.91
2023-01-07T04:27:40.317Z,100512.47
2023-01-07T04:28:20.366Z,100518.81
2023-01-07T04:29:00.200Z,100497.72
2023-01-07T04:29:40.275Z,100504.09
2023-01-07T04:30:20.240Z,100499.44
2023-01-07T04:31:00.308Z,100510.75
2023-01-07T04:31:41.218Z,100514.28
2023-01-07T04:32:21.273Z,100503.34
2023-01-07T04:33:01.217Z,100489.56
2023-01-07T04:33:41.342Z,100512.81
2023-01-07T04:34:21.203Z,100522.03
2023-01-07T04:35:01.312Z,100513.22
2023-01-07T04:35:42.214Z,100513.00
2023-01-07T04:36:23.333Z,100511.72
2023-01-07T04:37:03.243Z,100517.63
2023-01-07T04:37:43.301Z,100517.31
2023-01-07T04:38:24.207Z,100511.94
2023-01-07T04:39:04.468Z,100514.72
2023-01-07T04:39:44.205Z,100523.75
2023-01-07T04:40:24.364Z,100518.06
2023-01-07T04:41:05.227Z,100514.06
2023-01-07T04:41:46.277Z,100521.94
2023-01-07T04:42:26.188Z,100517.31
2023-01-07T04:43:06.339Z,100512.78
2023-01-07T04:43:46.197Z,100522.38
2023-01-07T04:44:26.357Z,100508.78
2023-01-07T04:45:06.220Z,100498.34
2023-01-07T04:45:47.396Z,100513.94
2023-01-07T04:46:28.270Z,100517.94
2023-01-07T04:47:08.342Z,100516.09
2023-01-07T04:47:48.191Z,100515.88
2023-01-07T04:48:29.258Z,100507.38
2023-01-07T04:49:10.185Z,100511.25
2023-01-07T04:49:50.273Z,100512.03
2023-01-07T04:50:31.235Z,100514.38
2023-01-07T04:51:11.269Z,100511.69
2023-01-07T04:51:51.215Z,100514.47
2023-01-07T04:52:31.308Z,100518.47
2023-01-07T04:53:11.214Z,100507.41
2023-01-07T04:53:51.261Z,100508.03
2023-01-07T04:54:31.174Z,100517.72
2023-01-07T04:55:12.331Z,100517.53
2023-01-07T04:55:52.162Z,100524.38
2023-01-07T04:56:32.283Z,100522.53
2023-01-07T04:57:12.226Z,100522.78
2023-01-07T04:57:52.271Z,100520.28
2023-01-07T04:58:32.179Z,100518.59
2023-01-07T04:59:12.296Z,100515.78
2023-01-07T04:59:53.180Z,100515.56
2023-01-07T05:00:33.255Z,100515.59
2023-01-07T05:01:13.279Z,100516.63
2023-01-07T05:01:53.364Z,100503.19
2023-01-07T05:02:33.267Z,100506.66
2023-01-07T05:03:13.273Z,100508.59
2023-01-07T05:03:53.178Z,100518.81
2023-01-07T05:04:33.302Z,100519.13
2023-01-07T05:05:14.168Z,100522.81
2023-01-07T05:05:54.322Z,100523.97
2023-01-07T05:06:34.188Z,100528.28
2023-01-07T05:07:28.210Z,100521.41
2023-01-07T05:08:08.207Z,100511.59
2023-01-07T05:08:49.280Z,100519.66
2023-01-07T05:09:29.192Z,100505.16
2023-01-07T05:10:09.322Z,100513.22
2023-01-07T05:10:49.174Z,100511.72
2023-01-07T05:11:29.235Z,100518.50
2023-01-07T05:12:10.213Z,100499.56
2023-01-07T05:12:50.276Z,100517.53
2023-01-07T05:13:31.186Z,100525.72
2023-01-07T05:14:11.294Z,100522.25
2023-01-07T05:14:51.186Z,100520.34
2023-01-07T05:15:31.301Z,100517.97
2023-01-07T05:16:12.201Z,100519.03
2023-01-07T05:16:52.297Z,100514.97
2023-01-07T05:17:32.382Z,100523.88
2023-01-07T05:18:13.251Z,100523.34
2023-01-07T05:18:53.214Z,100495.78
2023-01-07T05:19:33.277Z,100518.03
2023-01-07T05:20:15.184Z,100497.31
2023-01-07T05:20:55.219Z,100523.66
2023-01-07T05:21:35.170Z,100520.97
2023-01-07T05:22:15.243Z,100533.44
2023-01-07T05:22:56.182Z,100528.28
2023-01-07T05:23:36.206Z,100501.28
2023-01-07T05:24:16.217Z,100529.34
2023-01-07T05:24:56.210Z,100515.78
2023-01-07T05:25:36.194Z,100513.75
2023-01-07T05:26:16.829Z,100523.00
2023-01-07T05:26:58.141Z,100524.19
2023-01-07T05:27:38.221Z,100518.94
2023-01-07T05:28:18.134Z,100514.09
2023-01-07T05:28:58.233Z,100520.97
2023-01-07T05:29:38.221Z,100520.34
2023-01-07T05:30:18.295Z,100524.63
2023-01-07T05:30:58.217Z,100511.59
2023-01-07T05:31:38.259Z,100526.56
2023-01-07T05:32:19.159Z,100502.81
2023-01-07T05:32:59.227Z,100517.97
2023-01-07T05:33:39.130Z,100518.06
2023-01-07T05:34:19.218Z,100501.16
2023-01-07T05:34:59.176Z,100519.38
2023-01-07T05:35:40.233Z,100520.31
2023-01-07T05:36:21.138Z,100507.63
2023-01-07T05:37:01.260Z,100519.88
2023-01-07T05:37:41.145Z,100521.81
2023-01-07T05:38:21.182Z,100516.00
2023-01-07T05:39:02.159Z,100501.38
2023-01-07T05:39:42.211Z,100520.31
2023-01-07T05:40:22.145Z,100513.53
2023-01-07T05:41:02.239Z,100522.78
2023-01-07T05:41:43.155Z,100513.97
2023-01-07T05:42:23.211Z,100515.59
2023-01-07T05:43:04.135Z,100514.06
2023-01-07T05:43:44.232Z,100518.28
2023-01-07T05:44:24.130Z,100518.81
2023-01-07T05:45:04.231Z,100524.19
2023-01-07T05:45:44.231Z,100527.38
2023-01-07T05:46:25.264Z,100522.88
2023-01-07T05:47:06.150Z,100514.06
2023-01-07T05:47:46.208Z,100518.78
2023-01-07T05:48:26.147Z,100519.84
2023-01-07T05:49:06.418Z,100518.22
2023-01-07T05:49:46.160Z,100508.44
2023-01-07T05:50:26.265Z,100518.00
2023-01-07T05:51:07.160Z,100521.00
2023-01-07T05:51:47.230Z,100522.41
2023-01-07T05:52:27.124Z,100514.25
2023-01-07T05:53:07.193Z,100504.69
2023-01-07T05:53:47.144Z,100517.72
2023-01-07T05:54:27.223Z,100518.69
2023-01-07T05:55:07.139Z,100516.38
2023-01-07T05:55:47.206Z,100504.47
2023-01-07T05:56:28.154Z,100524.38
2023-01-07T05:57:08.193Z,100512.66
2023-01-07T05:57:48.154Z,100522.66
2023-01-07T05:58:28.226Z,100515.38
2023-01-07T05:59:09.116Z,100506.81
2023-01-07T05:59:49.167Z,100511.66
2023-01-07T06:00:30.132Z,100508.66
2023-01-07T06:01:10.284Z,100518.31
2023-01-07T06:01:50.177Z,100520.59
2023-01-07T06:02:30.215Z,100509.72
2023-01-07T06:03:11.156Z,100512.22
2023-01-07T06:03:51.269Z,100508.25
2023-01-07T06:04:31.180Z,100520.06
2023-01-07T06:05:13.189Z,100515.09
2023-01-07T06:05:56.098Z,100512.41
2023-01-07T06:06:36.188Z,100506.09
2023-01-07T06:07:16.145Z,100508.00
2023-01-07T06:07:56.189Z,100508.25
2023-01-07T06:08:36.130Z,100530.94
2023-01-07T06:09:18.213Z,100522.44
2023-01-07T06:10:00.281Z,100518.38
2023-01-07T06:10:41.547Z,100524.19
2023-01-07T06:11:21.102Z,100521.81
2023-01-07T06:12:01.188Z,100527.44
2023-01-07T06:12:42.111Z,100525.69
2023-01-07T06:13:22.163Z,100519.44
2023-01-07T06:14:02.111Z,100506.97
2023-01-07T06:14:42.163Z,100521.50
2023-01-07T06:15:22.109Z,100521.38
2023-01-07T06:16:13.218Z,100534.72
2023-01-07T06:16:53.102Z,100525.69
2023-01-07T06:17:33.251Z,100523.97
2023-01-07T06:18:14.121Z,100529.16
2023-01-07T06:18:54.163Z,100523.53
2023-01-07T06:19:35.100Z,100520.00
2023-01-07T06:20:16.239Z,100523.84
2023-01-07T06:20:58.103Z,100525.66
2023-01-07T06:21:38.181Z,100518.38
2023-01-07T06:22:18.090Z,100494.59
2023-01-07T06:22:58.207Z,100525.47
2023-01-07T06:23:38.133Z,100527.94
2023-01-07T06:24:19.196Z,100527.19
2023-01-07T06:24:59.103Z,100525.47
2023-01-07T06:25:39.226Z,100523.53
2023-01-07T06:26:19.091Z,100526.78
2023-01-07T06:26:59.143Z,100508.50
2023-01-07T06:27:40.124Z,100510.22
2023-01-07T06:28:20.203Z,100517.09
2023-01-07T06:29:01.127Z,100506.53
2023-01-07T06:29:41.175Z,100523.53
2023-01-07T06:30:21.089Z,100520.66
2023-01-07T06:31:01.169Z,100518.94
2023-01-07T06:31:41.093Z,100526.56
2023-01-07T06:32:21.178Z,100535.38
2023-01-07T06:33:02.083Z,100535.38
2023-01-07T06:33:43.200Z,100524.94
2023-01-07T06:34:24.143Z,100527.53
2023-01-07T06:35:04.162Z,100536.34
2023-01-07T06:35:44.076Z,100524.75
2023-01-07T06:36:24.159Z,100515.69
2023-01-07T06:37:04.089Z,100518.16
2023-01-07T06:37:45.225Z,100537.31
2023-01-07T06:38:26.075Z,100523.53
2023-01-07T06:39:06.164Z,100535.50
2023-01-07T06:39:46.090Z,100542.47
2023-01-07T06:40:26.177Z,100540.00
2023-01-07T06:41:06.079Z,100544.63
2023-01-07T06:41:46.152Z,100544.53
2023-01-07T06:42:26.080Z,100541.19
2023-01-07T06:43:06.158Z,100524.50
2023-01-07T06:43:46.076Z,100536.78
2023-01-07T06:44:26.178Z,100532.38
2023-01-07T06:45:06.108Z,100530.84
2023-01-07T06:45:46.113Z,100551.19
2023-01-07T06:46:26.129Z,100535.69
2023-01-07T06:47:06.213Z,100553.88
2023-01-07T06:47:47.080Z,100555.16
2023-01-07T06:48:27.240Z,100541.06
2023-01-07T06:49:07.079Z,100554.09
2023-01-07T06:49:47.157Z,100531.47
2023-01-07T06:50:27.095Z,100519.75
2023-01-07T06:51:07.149Z,100536.53
2023-01-07T06:51:47.066Z,100545.16
2023-01-07T06:52:27.124Z,100539.34
2023-01-07T06:53:07.089Z,100548.13
2023-01-07T06:53:47.212Z,100536.41
2023-01-07T06:54:27.060Z,100552.31
2023-01-07T06:55:07.149Z,100555.28
2023-01-07T06:55:47.091Z,100548.41
2023-01-07T06:56:27.146Z,100541.31
2023-01-07T06:57:08.086Z,100552.06
2023-01-07T06:57:48.134Z,100551.84
2023-01-07T06:58:28.089Z,100561.69
2023-01-07T06:59:08.156Z,100559.56
2023-01-07T06:59:48.127Z,100545.19
2023-01-07T07:00:28.161Z,100558.59
2023-01-07T07:01:15.201Z,100559.56
2023-01-07T07:01:56.272Z,100547.69
2023-01-07T07:02:36.150Z,100552.66
2023-01-07T07:03:16.223Z,100560.59
2023-01-07T07:03:56.123Z,100563.44
2023-01-07T07:04:36.136Z,100552.16
2023-01-07T07:05:18.119Z,100565.84
2023-01-07T07:05:58.145Z,100555.06
2023-01-07T07:06:40.105Z,100571.91
2023-01-07T07:07:20.146Z,100555.59
2023-01-07T07:08:00.043Z,100575.38
2023-01-07T07:08:40.156Z,100565.59
2023-01-07T07:09:20.040Z,100576.34
2023-01-07T07:10:00.829Z,100568.72
2023-01-07T07:10:42.058Z,100553.69
2023-01-07T07:11:22.125Z,100571.91
2023-01-07T07:12:02.098Z,100556.84
2023-01-07T07:12:43.157Z,100570.56
2023-01-07T07:13:23.038Z,100561.06
2023-01-07T07:14:04.097Z,100567.56
2023-01-07T07:14:44.048Z,100558.91
2023-01-07T07:15:24.162Z,100567.31
2023-01-07T07:16:05.080Z,100532.84
2023-01-07T07:16:45.117Z,100567.31
2023-01-07T07:17:25.058Z,100564.91
2023-01-07T07:18:05.130Z,100570.78
2023-01-07T07:18:45.033Z,100561.19
2023-01-07T07:19:25.140Z,100555.75
2023-01-07T07:20:05.082Z,100543.78
2023-01-07T07:20:46.158Z,100563.19
2023-01-07T07:21:26.044Z,100556.78
2023-01-07T07:22:06.193Z,100560.88
2023-01-07T07:22:54.066Z,100545.25
2023-01-07T07:23:34.103Z,100557.91
2023-01-07T07:24:14.193Z,100559.63
2023-01-07T07:24:54.220Z,100557.41
2023-01-07T07:25:35.010Z,100561.34
2023-01-07T07:26:15.263Z,100558.56
2023-01-07T07:26:56.092Z,100556.16
2023-01-07T07:27:36.120Z,100543.13
2023-01-07T07:28:17.046Z,100555.97
2023-01-07T07:28:57.129Z,100561.75
2023-01-07T07:29:38.104Z,100555.22
2023-01-07T07:30:21.099Z,100565.59
2023-01-07T07:31:01.059Z,100555.78
2023-01-07T07:31:41.209Z,100566.59
2023-01-07T07:32:21.055Z,100562.38
2023-01-07T07:33:01.097Z,100575.75
2023-01-07T07:33:42.066Z,100567.97
2023-01-07T07:34:22.091Z,100573.44
2023-01-07T07:35:03.017Z,100548.81
2023-01-07T07:35:43.125Z,100571.81
2023-01-07T07:36:23.022Z,100576.88
2023-01-07T07:37:03.061Z,100565.06
2023-01-07T07:37:44.007Z,100574.41
2023-01-07T07:38:24.069Z,100570.19
2023-01-07T07:39:05.060Z,100568.44
2023-01-07T07:39:45.116Z,100556.75
2023-01-07T07:40:25.051Z,100561.34
2023-01-07T07:41:07.117Z,100560.66
2023-01-07T07:41:47.047Z,100560.66
2023-01-07T07:42:27.098Z,100559.25
2023-01-07T07:43:10.725Z,100555.69
2023-01-07T07:43:53.124Z,100565.41
2023-01-07T07:44:33.016Z,100566.81
2023-01-07T07:45:16.176Z,100562.16
2023-01-07T07:45:56.026Z,100551.59
2023-01-07T07:46:36.367Z,100553.53
2023-01-07T07:47:19.053Z,100568.47
2023-01-07T07:47:59.102Z,100565.41
2023-01-07T07:48:40.018Z,100548.44
2023-01-07T07:49:20.097Z,100563.84
2023-01-07T07:50:00.026Z,100547.16
2023-01-07T07:50:41.104Z,100560.97
2023-01-07T07:51:21.015Z,100546.69
2023-01-07T07:52:01.110Z,100550.56
2023-01-07T07:52:42.011Z,100540.81
2023-01-07T07:53:22.155Z,100562.31
2023-01-07T07:54:02.004Z,100553.09
2023-01-07T07:54:42.669Z,100539.13
2023-01-07T07:55:26.629Z,100558.75
2023-01-07T07:56:07.149Z,100548.19
2023-01-07T07:56:46.986Z,100554.00
2023-01-07T07:57:27.088Z,100560.03
2023-01-07T07:58:07.063Z,100557.25
2023-01-07T07:58:47.084Z,100552.19
2023-01-07T07:59:26.994Z,100540.47
2023-01-07T08:00:07.340Z,100556.06
2023-01-07T08:00:47.018Z,100547.56
2023-01-07T08:01:27.141Z,100512.94
2023-01-07T08:02:08.019Z,100545.44
2023-01-07T08:02:48.159Z,100543.31
2023-01-07T08:03:28.049Z,100559.00
2023-01-07T08:04:09.095Z,100555.13
2023-01-07T08:04:49.014Z,100557.06
2023-01-07T08:05:29.187Z,100549.75
2023-01-07T08:06:12.033Z,100547.19
2023-01-07T08:06:53.207Z,100546.22
2023-01-07T08:07:33.622Z,100562.25
2023-01-07T08:08:14.089Z,100542.22
2023-01-07T08:08:53.971Z,100543.97
2023-01-07T08:09:34.203Z,100563.13
2023-01-07T08:10:15.018Z,100562.03
2023-01-07T08:10:55.087Z,100548.94
2023-01-07T08:11:36.018Z,100527.31
2023-01-07T08:12:16.058Z,100553.88
2023-01-07T08:12:56.979Z,100524.81
2023-01-07T08:13:38.058Z,100559.16
2023-01-07T08:14:18.163Z,100555.28
2023-01-07T08:14:58.156Z,100545.91
2023-01-07T08:15:38.179Z,100551.81
2023-01-07T08:16:19.079Z,100548.50
2023-01-07T08:17:00.045Z,100543.75
2023-01-07T08:17:40.030Z,100531.41
2023-01-07T08:18:20.000Z,100550.34
2023-01-07T08:19:00.106Z,100533.97
2023-01-07T08:19:39.954Z,100541.84
2023-01-07T08:20:20.026Z,100542.91
2023-01-07T08:21:01.953Z,100541.94
2023-01-07T08:21:42.038Z,100548.09
2023-01-07T08:22:21.967Z,100540.75
2023-01-07T08:23:06.042Z,100548.09
2023-01-07T08:23:45.938Z,100556.47
2023-01-07T08:24:40.168Z,100539.69
2023-01-07T08:25:34.161Z,100555.19
2023-01-07T08:26:27.968Z,100533.66
2023-01-07T08:27:21.985Z,100546.25